Time;durP1;ratioP1;P1;durP2;ratioP2;P2;SDS_P1;SDS_P2;PMS_P1;PMS_P2;Temp;Humidity;BMP_temperature;BMP_pressure;BME280_temperature;BME280_humidity;BME280_pressure;Samples;Min_cycle;Max_cycle;Signal;HPM_P1;HPM_P2
2022/11/15 00:01:26;;;;;;;0.50;0.10;;;11.10;99.90;;;;;;4968192;28;20516;-76
2022/11/15 00:03:53;;;;;;;0.50;0.10;;;11.10;99.90;;;;;;4968269;28;20454;-75
2022/11/15 00:06:21;;;;;;;0.50;0.10;;;11.10;99.90;;;;;;4959661;28;20521;-78
2022/11/15 00:08:49;;;;;;;0.50;0.10;;;11.10;99.90;;;;;;4956968;29;21069;-76
2022/11/15 00:11:17;;;;;;;0.50;0.10;;;11.10;99.90;;;;;;4957440;29;20872;-76
2022/11/15 00:13:44;;;;;;;0.50;0.10;;;11.10;99.90;;;;;;4956461;29;20452;-75
2022/11/15 00:16:12;;;;;;;0.50;0.10;;;11.10;99.90;;;;;;4956824;29;20494;-75
2022/11/15 00:18:41;;;;;;;0.50;0.10;;;11.10;99.90;;;;;;4956460;29;20566;-77
2022/11/15 00:21:18;;;;;;;0.50;0.10;;;11.10;99.90;;;;;;4955695;28;20537;-77
2022/11/15 00:23:46;;;;;;;0.50;0.10;;;11.10;99.90;;;;;;4956388;29;20817;-77
2022/11/15 00:26:15;;;;;;;0.50;0.10;;;11.10;99.90;;;;;;4956783;29;20467;-77
2022/11/15 00:28:43;;;;;;;0.50;0.10;;;11.10;99.90;;;;;;4956376;29;20877;-75
2022/11/15 00:31:14;;;;;;;0.50;0.10;;;11.10;99.90;;;;;;4953915;29;20455;-76
2022/11/15 00:33:45;;;;;;;0.50;0.10;;;11.00;99.90;;;;;;4953357;29;20454;-75
2022/11/15 00:36:13;;;;;;;0.50;0.10;;;11.00;99.90;;;;;;4937047;29;20499;-77
2022/11/15 00:38:41;;;;;;;0.50;0.10;;;;;;;;;;4941593;29;20870;-76
2022/11/15 00:41:09;;;;;;;0.50;0.10;;;11.00;99.90;;;;;;4956011;29;20452;-76
2022/11/15 00:43:39;;;;;;;0.50;0.10;;;10.90;99.90;;;;;;4955621;29;20482;-78
2022/11/15 00:46:08;;;;;;;0.50;0.10;;;10.90;99.90;;;;;;4955991;29;20475;-76
2022/11/15 00:48:36;;;;;;;1.17;0.97;;;10.90;99.90;;;;;;4955593;29;21002;-75
2022/11/15 00:51:06;;;;;;;0.50;0.10;;;10.80;99.90;;;;;;4955684;29;20502;-75
2022/11/15 00:53:33;;;;;;;2.30;2.10;;;10.80;99.90;;;;;;4955313;29;20478;-76
2022/11/15 00:56:02;;;;;;;0.50;0.10;;;10.90;99.90;;;;;;4955377;29;21030;-75
2022/11/15 00:58:30;;;;;;;0.50;0.10;;;10.80;99.90;;;;;;4955325;29;20471;-75
2022/11/15 05:05:33;;;;;;;0.50;0.10;;;11.00;99.90;;;;;;4958831;28;20471;-83
2022/11/15 05:08:01;;;;;;;0.50;0.10;;;11.00;99.90;;;;;;4962720;29;20459;-83
2022/11/15 05:10:29;;;;;;;0.50;0.10;;;11.00;99.90;;;;;;4963434;28;20841;-83
2022/11/15 05:12:57;;;;;;;0.50;0.10;;;10.90;99.90;;;;;;4983411;28;20440;-83
2022/11/15 05:15:25;;;;;;;0.50;0.10;;;10.90;99.90;;;;;;4994962;23;20450;-80
2022/11/15 05:17:58;;;;;;;0.90;0.87;;;10.90;99.90;;;;;;4961455;28;20458;-81
2022/11/15 05:20:26;;;;;;;0.50;0.10;;;10.90;99.90;;;;;;4963341;28;20455;-83
2022/11/15 05:22:55;;;;;;;0.50;0.10;;;11.00;99.90;;;;;;4970491;28;20848;-82
2022/11/15 05:25:23;;;;;;;0.50;0.10;;;11.00;99.90;;;;;;4981495;28;20804;-82
2022/11/15 05:27:51;;;;;;;0.50;0.10;;;11.00;99.90;;;;;;4996763;28;20534;-78
2022/11/15 05:30:19;;;;;;;0.50;0.10;;;11.00;99.90;;;;;;4999070;28;20445;-81
2022/11/15 05:32:46;;;;;;;0.50;0.20;;;11.00;99.90;;;;;;4979825;28;20483;-78
2022/11/15 05:35:23;;;;;;;0.50;0.10;;;10.90;99.90;;;;;;4977526;29;20427;-80
2022/11/15 05:37:51;;;;;;;0.50;0.10;;;10.90;99.90;;;;;;4963511;29;20430;-83
2022/11/15 05:40:19;;;;;;;0.50;0.10;;;10.90;99.90;;;;;;4950543;29;20440;-83
2022/11/15 05:42:48;;;;;;;0.50;0.10;;;10.90;99.90;;;;;;4954104;29;20484;-82
2022/11/15 05:45:16;;;;;;;0.50;0.10;;;10.90;99.90;;;;;;4950674;29;20510;-82
2022/11/15 05:47:51;;;;;;;0.50;0.10;;;10.90;99.90;;;;;;4957081;29;20427;-82
2022/11/15 05:50:20;;;;;;;0.50;0.10;;;10.90;99.90;;;;;;4958128;29;20454;-80
2022/11/15 05:52:48;;;;;;;4.10;2.73;;;10.90;99.90;;;;;;4958026;29;20478;-80
2022/11/15 05:55:17;;;;;;;0.50;0.30;;;10.80;99.90;;;;;;4945899;29;20443;-80
2022/11/15 05:57:45;;;;;;;0.50;0.10;;;10.80;99.90;;;;;;4947240;29;20451;-80
2022/11/15 06:00:14;;;;;;;0.50;0.10;;;10.80;99.90;;;;;;4961381;29;20450;-80
2022/11/15 06:02:42;;;;;;;0.60;0.10;;;10.80;99.90;;;;;;4961483;29;20511;-81
2022/11/15 06:05:11;;;;;;;0.50;0.10;;;;;;;;;;4945614;29;20542;-83
2022/11/15 06:07:41;;;;;;;0.50;0.10;;;10.80;99.90;;;;;;4968996;28;20443;-80
2022/11/15 06:10:09;;;;;;;0.50;0.10;;;10.80;99.90;;;;;;4968804;28;20460;-82
2022/11/15 06:12:38;;;;;;;0.50;0.10;;;10.80;99.90;;;;;;4958397;29;20451;-81
2022/11/15 06:15:06;;;;;;;0.50;0.10;;;10.80;99.90;;;;;;4961781;29;20973;-80
2022/11/15 06:17:35;;;;;;;0.50;0.10;;;10.90;99.90;;;;;;4963209;28;20542;-80
2022/11/15 06:20:03;;;;;;;0.50;0.10;;;10.80;99.90;;;;;;4963362;29;20443;-81
2022/11/15 06:22:31;;;;;;;0.50;0.10;;;;;;;;;;4944820;29;20447;-79
2022/11/15 06:25:00;;;;;;;0.50;0.10;;;10.90;99.90;;;;;;4942500;29;20436;-79
2022/11/15 06:27:32;;;;;;;0.50;0.10;;;10.90;99.90;;;;;;4958384;29;20838;-83
2022/11/15 06:30:00;;;;;;;0.50;0.10;;;10.90;99.90;;;;;;4961401;29;20459;-83
2022/11/15 06:32:30;;;;;;;0.50;0.10;;;11.00;99.90;;;;;;4961550;29;20466;-80
2022/11/15 06:34:58;;;;;;;0.50;0.10;;;10.90;99.90;;;;;;4963123;29;20466;-82
2022/11/15 06:37:26;;;;;;;0.50;0.10;;;11.00;99.90;;;;;;4962976;29;20478;-81
2022/11/15 06:39:54;;;;;;;0.70;0.50;;;11.00;99.90;;;;;;4965643;29;20448;-83
2022/11/15 06:42:23;;;;;;;0.50;0.10;;;11.00;99.90;;;;;;4964522;29;20466;-80
2022/11/15 06:44:51;;;;;;;0.50;0.10;;;11.00;99.90;;;;;;4961901;29;20913;-81
2022/11/15 06:47:19;;;;;;;0.50;0.10;;;11.10;99.90;;;;;;4961503;29;20978;-83
2022/11/15 06:49:47;;;;;;;0.50;0.10;;;11.10;99.90;;;;;;4969296;28;20450;-82
2022/11/15 06:52:14;;;;;;;0.50;0.10;;;11.10;99.90;;;;;;4968866;28;20454;-81
2022/11/15 06:54:42;;;;;;;0.50;0.10;;;11.10;99.90;;;;;;4979499;28;20481;-81
2022/11/15 06:57:10;;;;;;;0.50;0.10;;;11.10;99.90;;;;;;4965710;28;20474;-82
2022/11/15 06:59:40;;;;;;;0.50;0.10;;;11.10;99.90;;;;;;4965245;29;21000;-83
2022/11/15 07:02:13;;;;;;;0.50;0.10;;;11.10;99.90;;;;;;4967589;29;20490;-83
2022/11/15 07:04:41;;;;;;;0.50;0.10;;;11.20;99.90;;;;;;4968486;29;20486;-82
2022/11/15 07:07:09;;;;;;;0.50;0.10;;;11.20;99.90;;;;;;4966737;29;20522;-81
2022/11/15 07:09:37;;;;;;;0.50;0.10;;;11.20;99.90;;;;;;4964299;29;20967;-81
2022/11/15 07:12:05;;;;;;;0.50;0.10;;;11.20;99.90;;;;;;4966580;29;21017;-82
2022/11/15 07:14:35;;;;;;;0.50;0.10;;;11.30;99.90;;;;;;4968860;29;20440;-79
2022/11/15 07:17:06;;;;;;;0.50;0.10;;;;;;;;;;4958359;29;20630;-80
2022/11/15 07:19:34;;;;;;;0.50;0.10;;;11.30;99.90;;;;;;4959438;29;20443;-80
2022/11/15 07:22:02;;;;;;;0.50;0.10;;;11.40;99.90;;;;;;4966571;29;20458;-80
2022/11/15 07:24:30;;;;;;;0.50;0.10;;;11.40;99.90;;;;;;4964481;29;20997;-80
2022/11/15 07:26:58;;;;;;;0.60;0.40;;;11.40;99.90;;;;;;4963350;29;20531;-83
2022/11/15 07:29:26;;;;;;;0.50;0.10;;;11.40;99.90;;;;;;4963315;28;20454;-81
2022/11/15 07:31:54;;;;;;;0.50;0.10;;;11.50;99.90;;;;;;4965867;29;20545;-81
2022/11/15 07:34:24;;;;;;;0.50;0.10;;;11.50;99.90;;;;;;4972169;29;20451;-82
2022/11/15 07:36:52;;;;;;;0.50;0.10;;;;;;;;;;4978958;29;20478;-81
2022/11/15 07:39:20;;;;;;;0.50;0.20;;;11.50;99.90;;;;;;4978069;29;20487;-82
2022/11/15 07:41:49;;;;;;;0.50;0.10;;;11.50;99.90;;;;;;4967109;29;20481;-82
2022/11/15 07:44:17;;;;;;;0.50;0.10;;;11.50;99.90;;;;;;4964216;29;20478;-83
2022/11/15 07:46:45;;;;;;;0.70;0.57;;;;;;;;;;4963865;29;20503;-82
2022/11/15 07:49:13;;;;;;;0.50;0.10;;;11.50;99.90;;;;;;4963714;29;20556;-82
2022/11/15 07:51:45;;;;;;;0.70;0.60;;;11.50;99.90;;;;;;4962766;29;20456;-82
2022/11/15 07:54:13;;;;;;;0.50;0.10;;;11.50;99.90;;;;;;4961333;29;20443;-82
2022/11/15 07:56:41;;;;;;;0.50;0.10;;;11.60;99.90;;;;;;4946150;29;20513;-82
2022/11/15 07:59:09;;;;;;;7.37;6.70;;;11.50;99.90;;;;;;4949193;29;20451;-80
2022/11/15 08:01:37;;;;;;;0.60;0.33;;;11.50;99.90;;;;;;4952057;29;20443;-81
2022/11/15 08:04:05;;;;;;;0.50;0.20;;;11.50;99.90;;;;;;4968033;29;20529;-82
2022/11/15 08:06:32;;;;;;;0.50;0.20;;;11.60;99.90;;;;;;4968343;29;20470;-82
2022/11/15 08:09:02;;;;;;;0.50;0.10;;;;;;;;;;4964177;29;20992;-81
2022/11/15 08:11:30;;;;;;;0.50;0.10;;;11.60;99.90;;;;;;4968107;29;20459;-82
2022/11/15 08:13:59;;;;;;;0.53;0.10;;;11.60;99.90;;;;;;4978510;29;20453;-81
2022/11/15 08:16:27;;;;;;;0.60;0.20;;;11.70;99.90;;;;;;4978823;28;20470;-81
2022/11/15 08:18:58;;;;;;;0.60;0.10;;;;;;;;;;4966672;29;20443;-83
2022/11/15 08:21:26;;;;;;;0.50;0.10;;;11.90;99.90;;;;;;4967117;29;20451;-82
2022/11/15 08:23:54;;;;;;;26.33;17.70;;;11.80;99.90;;;;;;4965996;29;20545;-82
2022/11/15 08:26:24;;;;;;;0.50;0.10;;;12.00;99.90;;;;;;4965821;29;21016;-81
2022/11/15 08:28:52;;;;;;;0.50;0.10;;;12.00;99.90;;;;;;4965688;29;20458;-82
2022/11/15 08:31:20;;;;;;;1.80;0.70;;;12.10;99.90;;;;;;4964978;29;20455;-81
2022/11/15 08:33:48;;;;;;;0.50;0.10;;;12.10;99.90;;;;;;4946793;29;20535;-82
2022/11/15 08:36:17;;;;;;;0.60;0.10;;;12.20;99.90;;;;;;4947076;29;20527;-83
2022/11/15 08:38:45;;;;;;;0.50;0.10;;;12.20;99.90;;;;;;4948011;29;20436;-82
2022/11/15 08:41:20;;;;;;;0.50;0.10;;;12.20;99.90;;;;;;4946678;29;20460;-82
2022/11/15 08:43:49;;;;;;;0.50;0.10;;;12.30;99.90;;;;;;4965843;29;20442;-81
2022/11/15 08:46:18;;;;;;;0.50;0.10;;;12.30;99.90;;;;;;4965758;29;20527;-81
2022/11/15 08:48:46;;;;;;;8.47;7.73;;;12.30;99.90;;;;;;4963921;29;20483;-83
2022/11/15 08:51:14;;;;;;;0.60;0.10;;;12.40;99.90;;;;;;4964930;29;20447;-80
2022/11/15 08:53:42;;;;;;;0.50;0.10;;;12.40;99.90;;;;;;4964480;29;20458;-80
2022/11/15 08:56:11;;;;;;;0.60;0.10;;;12.50;99.90;;;;;;4964034;29;20982;-80
2022/11/15 08:58:40;;;;;;;0.60;0.10;;;12.50;99.90;;;;;;4963963;29;20473;-83
2022/11/15 09:01:16;;;;;;;0.57;0.10;;;12.40;99.90;;;;;;4964248;29;20969;-82
2022/11/15 09:03:45;;;;;;;0.50;0.10;;;12.50;99.90;;;;;;4964668;29;20454;-82
2022/11/15 09:06:14;;;;;;;0.53;0.10;;;12.60;99.90;;;;;;4967335;29;20494;-83
2022/11/15 09:08:42;;;;;;;0.57;0.10;;;;;;;;;;4966409;29;20484;-82
2022/11/15 09:11:20;;;;;;;0.60;0.10;;;12.60;99.90;;;;;;4964487;29;20443;-81
2022/11/15 09:13:48;;;;;;;0.60;0.10;;;12.60;99.90;;;;;;4962644;28;20494;-82
2022/11/15 09:16:17;;;;;;;0.60;0.10;;;12.70;99.90;;;;;;4958371;29;20502;-81
2022/11/15 09:18:45;;;;;;;0.50;0.10;;;12.70;99.90;;;;;;4976627;29;20458;-81
2022/11/15 09:21:13;;;;;;;0.60;0.20;;;12.70;99.90;;;;;;4969849;29;20455;-82
2022/11/15 09:23:41;;;;;;;0.50;0.10;;;12.80;99.90;;;;;;4973085;29;20439;-80
2022/11/15 09:26:09;;;;;;;0.60;0.10;;;12.90;99.90;;;;;;4964924;29;20492;-82
2022/11/15 09:28:41;;;;;;;0.60;0.10;;;12.90;99.90;;;;;;4956623;28;20456;-80
2022/11/15 09:31:09;;;;;;;0.60;0.10;;;13.00;99.90;;;;;;4964603;29;20566;-79
2022/11/15 09:33:39;;;;;;;0.60;0.10;;;;;;;;;;4963889;29;20470;-82
2022/11/15 09:36:09;;;;;;;0.60;0.10;;;13.10;99.90;;;;;;4971046;29;20448;-81
2022/11/15 09:38:37;;;;;;;0.60;0.10;;;13.10;99.90;;;;;;4966538;29;20478;-81
2022/11/15 09:41:32;;;;;;;0.60;0.10;;;13.10;99.90;;;;;;4964991;28;20511;-80
2022/11/15 09:44:11;;;;;;;0.60;0.10;;;13.10;99.90;;;;;;4950702;29;20480;-81
2022/11/15 09:46:52;;;;;;;0.60;0.10;;;13.10;99.90;;;;;;4965939;29;20462;-79
2022/11/15 09:49:22;;;;;;;0.60;0.10;;;13.20;99.90;;;;;;4949580;29;20950;-80
2022/11/15 09:51:54;;;;;;;0.60;0.10;;;13.20;99.90;;;;;;4946997;29;20451;-80
2022/11/15 09:54:28;;;;;;;0.60;0.53;;;13.20;99.90;;;;;;4959940;28;20503;-82
2022/11/15 09:57:19;;;;;;;0.60;0.10;;;13.20;99.90;;;;;;4946526;29;20498;-82
2022/11/15 09:59:57;;;;;;;0.60;0.10;;;13.30;99.90;;;;;;4957898;28;20451;-82
2022/11/15 10:03:08;;;;;;;0.60;0.10;;;13.30;99.90;;;;;;4957664;29;20454;-81
2022/11/15 10:05:41;;;;;;;0.60;0.10;;;13.50;99.90;;;;;;4958867;29;20487;-80
2022/11/15 10:08:26;;;;;;;0.60;0.10;;;13.60;99.90;;;;;;4966107;29;20455;-82
2022/11/15 10:11:02;;;;;;;0.60;0.10;;;13.60;99.90;;;;;;4954218;29;20452;-81
2022/11/15 10:13:53;;;;;;;0.60;0.13;;;13.70;99.90;;;;;;4943283;29;20459;-82
2022/11/15 10:16:36;;;;;;;0.60;0.10;;;13.90;99.90;;;;;;4940732;29;21017;-82
2022/11/15 10:19:15;;;;;;;0.60;0.10;;;13.90;99.90;;;;;;4941905;29;20489;-82
2022/11/15 10:21:55;;;;;;;0.60;0.10;;;14.00;99.90;;;;;;4962049;29;20431;-82
2022/11/15 10:24:36;;;;;;;0.60;0.10;;;14.20;99.90;;;;;;4960256;29;20455;-82
2022/11/15 10:27:10;;;;;;;0.60;0.10;;;14.20;99.90;;;;;;4961388;29;20458;-81
2022/11/15 10:29:44;;;;;;;0.60;0.10;;;14.20;99.90;;;;;;4946614;29;20510;-81
2022/11/15 10:35:23;;;;;;;2.50;1.33;;;14.30;99.90;;;;;;4969979;28;20566;-81
2022/11/15 10:37:57;;;;;;;0.60;0.10;;;14.30;99.90;;;;;;4962029;28;20454;-82
2022/11/15 10:40:25;;;;;;;0.83;0.53;;;14.30;99.90;;;;;;4977990;28;20447;-81
2022/11/15 10:43:14;;;;;;;0.60;0.10;;;15.90;99.90;;;;;;4970555;28;20443;-82
2022/11/15 10:45:42;;;;;;;0.60;0.10;;;14.20;99.90;;;;;;4963143;28;21084;-82
2022/11/15 10:48:22;;;;;;;0.60;0.10;;;14.20;99.90;;;;;;4968485;28;20462;-81
2022/11/15 10:50:52;;;;;;;2.70;0.70;;;14.20;99.90;;;;;;4978823;28;20450;-83
2022/11/15 10:53:26;;;;;;;0.60;0.10;;;14.20;99.90;;;;;;4986962;28;20447;-82
2022/11/15 10:55:57;;;;;;;0.60;0.10;;;14.20;99.90;;;;;;4955360;28;20482;-83
2022/11/15 10:58:33;;;;;;;0.60;0.20;;;14.20;99.90;;;;;;4960336;28;20443;-82
2022/11/15 11:01:14;;;;;;;0.60;0.10;;;14.20;99.90;;;;;;4968344;28;20484;-81
2022/11/15 11:03:44;;;;;;;0.60;0.10;;;14.20;99.90;;;;;;4959675;29;20462;-79
2022/11/15 11:06:14;;;;;;;0.60;0.10;;;14.30;99.90;;;;;;4966019;29;20475;-83
2022/11/15 11:08:55;;;;;;;0.60;0.20;;;14.30;99.90;;;;;;4952580;29;20452;-83
2022/11/15 11:11:23;;;;;;;0.60;0.10;;;14.30;99.90;;;;;;4965577;29;20451;-84
2022/11/15 11:14:00;;;;;;;0.60;0.10;;;14.40;99.90;;;;;;4969676;29;20938;-83
2022/11/15 11:16:42;;;;;;;0.60;0.10;;;14.40;99.90;;;;;;4972351;29;20470;-84
2022/11/15 11:19:40;;;;;;;0.60;0.10;;;14.40;99.90;;;;;;4973253;29;20451;-81
2022/11/15 11:22:16;;;;;;;0.60;0.10;;;14.40;99.90;;;;;;4929543;29;20435;-80
2022/11/15 11:24:57;;;;;;;0.60;0.10;;;14.50;99.90;;;;;;4972856;29;20440;-83
2022/11/15 11:27:33;;;;;;;0.60;0.10;;;;;;;;;;4972873;29;20477;-82
2022/11/15 11:30:11;;;;;;;2.53;2.43;;;14.60;99.90;;;;;;4966140;29;20451;-81
2022/11/15 11:32:56;;;;;;;0.60;0.10;;;14.60;99.90;;;;;;4958036;29;20435;-83
2022/11/15 11:35:30;;;;;;;0.60;0.10;;;14.60;99.90;;;;;;4968776;29;20446;-83
2022/11/15 11:38:09;;;;;;;0.60;0.10;;;14.60;99.90;;;;;;4972996;29;20446;-81
2022/11/15 11:40:55;;;;;;;0.60;0.10;;;14.60;99.90;;;;;;4972908;29;20461;-82
2022/11/15 11:43:29;;;;;;;0.60;0.10;;;14.60;99.90;;;;;;4966090;29;20462;-81
2022/11/15 11:46:10;;;;;;;0.60;0.10;;;14.60;99.90;;;;;;4973173;29;20893;-80
2022/11/15 11:48:43;;;;;;;0.60;0.10;;;14.60;99.90;;;;;;4969184;29;20453;-82
2022/11/15 11:51:18;;;;;;;0.60;0.10;;;14.60;99.90;;;;;;4973497;29;20555;-82
2022/11/15 11:53:52;;;;;;;0.60;0.10;;;14.60;99.90;;;;;;4964124;29;20458;-82
2022/11/15 11:56:28;;;;;;;0.60;0.10;;;14.70;99.90;;;;;;4965203;29;20451;-81
2022/11/15 11:59:03;;;;;;;0.60;0.10;;;14.70;99.90;;;;;;4973368;29;20442;-82
2022/11/15 12:01:35;;;;;;;0.60;0.10;;;14.70;99.90;;;;;;4976948;29;20442;-82
2022/11/15 12:04:10;;;;;;;0.60;0.10;;;14.70;99.90;;;;;;4975073;29;20460;-82
2022/11/15 12:06:45;;;;;;;0.60;0.10;;;14.70;99.90;;;;;;4968218;29;20491;-82
2022/11/15 12:09:17;;;;;;;0.97;0.87;;;14.70;99.90;;;;;;4972718;29;20455;-80
2022/11/15 12:11:53;;;;;;;0.60;0.20;;;14.70;99.90;;;;;;4964806;29;20439;-82
2022/11/15 12:14:29;;;;;;;0.60;0.10;;;14.70;99.90;;;;;;4976057;29;20461;-83
2022/11/15 12:16:58;;;;;;;0.60;0.10;;;14.70;99.90;;;;;;4973835;28;20466;-82
2022/11/15 12:19:27;;;;;;;0.60;0.13;;;14.70;99.90;;;;;;4964901;29;20518;-81
2022/11/15 12:22:01;;;;;;;0.60;0.10;;;14.80;99.90;;;;;;4960495;29;20436;-81
2022/11/15 12:24:36;;;;;;;0.60;0.10;;;14.80;99.90;;;;;;4968560;29;20522;-82
2022/11/15 12:27:13;;;;;;;0.60;0.10;;;14.80;99.90;;;;;;4973799;29;20505;-82
2022/11/15 12:29:48;;;;;;;0.60;0.40;;;14.80;99.90;;;;;;4976209;29;20447;-81
2022/11/15 12:32:26;;;;;;;0.60;0.10;;;14.80;99.90;;;;;;4964872;29;20448;-80
2022/11/15 12:34:55;;;;;;;0.60;0.20;;;14.80;99.90;;;;;;4975233;29;20483;-82
2022/11/15 12:37:49;;;;;;;0.60;0.10;;;14.80;99.90;;;;;;4979115;28;20503;-81
2022/11/15 12:40:23;;;;;;;0.60;0.10;;;14.80;99.90;;;;;;4979028;28;20450;-82
2022/11/15 12:43:05;;;;;;;0.60;0.10;;;14.80;99.90;;;;;;4979063;29;20485;-81
2022/11/15 12:45:35;;;;;;;2.13;1.13;;;14.80;99.90;;;;;;4973864;28;20466;-81
2022/11/15 12:48:40;;;;;;;0.80;0.67;;;14.80;99.90;;;;;;4977936;28;20526;-83
2022/11/15 12:51:08;;;;;;;0.60;0.10;;;14.80;99.90;;;;;;4977385;28;20447;-82
2022/11/15 12:53:37;;;;;;;0.60;0.10;;;14.70;99.90;;;;;;4977740;28;20443;-82
2022/11/15 12:56:25;;;;;;;0.60;0.10;;;14.60;99.90;;;;;;4969606;29;20450;-83
2022/11/15 12:58:57;;;;;;;0.60;0.10;;;14.60;99.90;;;;;;4963346;29;20502;-80
2022/11/15 13:01:59;;;;;;;0.60;0.10;;;15.30;99.90;;;;;;4968613;29;20448;-81
2022/11/15 13:04:29;;;;;;;0.60;0.10;;;14.70;99.90;;;;;;4971053;29;20446;-82
2022/11/15 13:07:00;;;;;;;0.60;0.10;;;14.70;99.90;;;;;;4958842;28;20479;-80
2022/11/15 13:09:53;;;;;;;0.70;0.60;;;14.70;99.90;;;;;;4949375;28;20469;-80
2022/11/15 13:12:55;;;;;;;0.60;0.10;;;14.70;99.90;;;;;;4947972;29;20456;-82
2022/11/15 13:15:56;;;;;;;0.60;0.10;;;14.70;99.90;;;;;;4969670;29;20458;-80
2022/11/15 13:18:39;;;;;;;0.60;0.10;;;14.70;99.90;;;;;;4967675;29;20451;-82
2022/11/15 13:24:15;;;;;;;0.60;0.10;;;14.80;99.90;;;;;;4971713;29;20470;-82
2022/11/15 13:26:43;;;;;;;0.60;0.10;;;14.80;99.90;;;;;;4975917;28;20474;-82
2022/11/15 13:29:17;;;;;;;0.60;0.10;;;14.80;99.90;;;;;;4964737;29;20445;-80
2022/11/15 13:31:49;;;;;;;0.60;0.10;;;14.80;99.90;;;;;;4955190;29;20482;-80
2022/11/15 13:34:25;;;;;;;0.60;0.10;;;14.80;99.90;;;;;;4954233;29;20466;-82
2022/11/15 13:37:30;;;;;;;0.60;0.10;;;14.80;99.90;;;;;;4968870;29;20463;-81
2022/11/15 13:40:24;;;;;;;0.60;0.10;;;14.90;99.90;;;;;;4976603;28;20443;-80
2022/11/15 13:42:52;;;;;;;0.60;0.10;;;;;;;;;;4979602;28;20527;-81
2022/11/15 13:45:21;;;;;;;0.60;0.10;;;;;;;;;;4977380;28;20506;-81
2022/11/15 13:47:55;;;;;;;0.60;0.10;;;;;;;;;;4991164;28;20525;-81
2022/11/15 13:50:41;;;;;;;0.60;0.10;;;;;;;;;;4993743;28;20405;-83
2022/11/15 13:53:11;;;;;;;1.30;1.00;;;14.90;99.90;;;;;;4978303;28;20467;-82
2022/11/15 13:55:39;;;;;;;0.60;0.10;;;14.80;99.90;;;;;;4967332;28;20781;-82
2022/11/15 13:58:07;;;;;;;0.60;0.10;;;;;;;;;;4970257;28;20440;-81
2022/11/15 14:00:39;;;;;;;0.60;0.10;;;14.80;99.90;;;;;;4971725;28;20426;-81
2022/11/15 14:03:17;;;;;;;0.60;0.10;;;14.80;99.90;;;;;;4997883;28;20510;-81
2022/11/15 14:05:46;;;;;;;0.60;0.10;;;;;;;;;;4991064;28;20519;-81
2022/11/15 14:08:25;;;;;;;0.60;0.10;;;14.80;99.90;;;;;;4962341;28;20491;-80
2022/11/15 14:11:07;;;;;;;0.60;0.10;;;;;;;;;;4963044;28;20514;-81
2022/11/15 14:13:36;;;;;;;0.60;0.10;;;;;;;;;;4978955;28;20458;-80
2022/11/15 14:16:18;;;;;;;0.60;0.10;;;14.80;99.90;;;;;;4979101;28;20533;-80
2022/11/15 14:18:50;;;;;;;0.60;0.10;;;14.80;99.90;;;;;;4978964;28;20502;-81
2022/11/15 14:21:19;;;;;;;0.60;0.10;;;14.80;99.90;;;;;;4958264;28;20467;-80
2022/11/15 14:23:48;;;;;;;0.60;0.10;;;;;;;;;;4958357;29;20464;-80
2022/11/15 14:26:33;;;;;;;0.60;0.10;;;14.80;99.90;;;;;;4957676;28;20464;-81
2022/11/15 14:29:25;;;;;;;0.60;0.10;;;14.80;99.90;;;;;;4971749;28;20461;-81
2022/11/15 14:31:54;;;;;;;0.60;0.10;;;14.70;99.90;;;;;;4974015;29;20472;-79
2022/11/15 14:34:23;;;;;;;0.60;0.10;;;15.00;99.90;;;;;;4975972;29;20438;-81
2022/11/15 14:36:51;;;;;;;0.60;0.10;;;14.80;99.90;;;;;;4959540;28;20456;-81
2022/11/15 14:39:20;;;;;;;0.60;0.10;;;14.80;99.90;;;;;;4968030;28;20440;-80
2022/11/15 14:41:48;;;;;;;0.60;0.10;;;14.70;99.90;;;;;;4958393;28;20511;-82
2022/11/15 14:44:18;;;;;;;0.60;0.10;;;14.70;99.90;;;;;;4963372;28;20503;-81
2022/11/15 14:46:47;;;;;;;0.60;0.10;;;14.70;99.90;;;;;;4975895;28;20450;-81
2022/11/15 14:49:16;;;;;;;0.60;0.10;;;14.70;99.90;;;;;;4965883;29;20455;-79
2022/11/15 14:51:45;;;;;;;0.60;0.10;;;14.70;99.90;;;;;;4970070;29;20479;-81
2022/11/15 14:54:13;;;;;;;0.60;0.10;;;14.60;99.90;;;;;;4965502;29;20487;-82
2022/11/15 14:56:42;;;;;;;0.60;0.10;;;14.60;99.90;;;;;;4969780;29;20499;-82
2022/11/15 14:59:10;;;;;;;0.60;0.10;;;14.60;99.90;;;;;;4971039;29;20450;-80
2022/11/15 15:01:41;;;;;;;0.60;0.10;;;14.50;99.90;;;;;;4967132;28;20448;-79
2022/11/15 15:04:11;;;;;;;0.60;0.10;;;14.50;99.90;;;;;;4959946;29;20440;-81
2022/11/15 15:06:39;;;;;;;0.60;0.10;;;14.50;99.90;;;;;;4966970;29;20500;-81
2022/11/15 15:09:08;;;;;;;0.60;0.10;;;14.50;99.90;;;;;;4965531;29;20479;-80
2022/11/15 15:11:37;;;;;;;0.60;0.10;;;14.50;99.90;;;;;;4967480;29;20467;-82
2022/11/15 15:14:04;;;;;;;0.60;0.10;;;14.50;99.90;;;;;;4962185;29;20446;-81
2022/11/15 15:16:32;;;;;;;0.60;0.10;;;14.50;99.90;;;;;;4953952;29;20844;-80
2022/11/15 15:19:01;;;;;;;0.60;0.10;;;14.50;99.90;;;;;;4960972;29;20451;-80
2022/11/15 15:21:30;;;;;;;0.60;0.10;;;14.30;99.90;;;;;;4970404;29;20447;-82
2022/11/15 15:24:05;;;;;;;0.60;0.10;;;;;;;;;;4954648;29;20552;-81
2022/11/15 15:26:36;;;;;;;0.60;0.10;;;14.20;99.90;;;;;;4960644;29;20475;-82
2022/11/15 15:29:04;;;;;;;0.60;0.10;;;14.20;99.90;;;;;;4974931;29;20681;-82
2022/11/15 15:31:33;;;;;;;0.60;0.10;;;;;;;;;;4972304;29;20447;-81
2022/11/15 15:34:01;;;;;;;0.60;0.10;;;14.20;99.90;;;;;;4972543;29;20446;-81
2022/11/15 15:36:29;;;;;;;0.60;0.10;;;14.20;99.90;;;;;;4968002;29;20468;-80
2022/11/15 15:38:57;;;;;;;0.60;0.10;;;14.10;99.90;;;;;;4967784;29;20467;-80
2022/11/15 15:41:25;;;;;;;0.60;0.10;;;14.10;99.90;;;;;;4962122;29;20590;-81
2022/11/15 15:43:54;;;;;;;0.60;0.20;;;14.10;99.90;;;;;;4964800;29;20448;-80
2022/11/15 15:46:22;;;;;;;0.60;0.20;;;14.10;99.90;;;;;;4965795;29;20494;-81
2022/11/15 15:48:50;;;;;;;0.60;0.10;;;14.10;99.90;;;;;;4965684;29;20487;-80
2022/11/15 15:51:18;;;;;;;0.60;0.10;;;14.00;99.90;;;;;;4972727;28;20531;-81
2022/11/15 15:53:48;;;;;;;0.60;0.10;;;14.00;99.90;;;;;;4964417;29;20451;-80
2022/11/15 15:56:16;;;;;;;0.60;0.10;;;13.90;99.90;;;;;;4963700;29;20456;-80
2022/11/15 15:58:44;;;;;;;0.60;0.20;;;13.90;99.90;;;;;;4969672;29;20441;-80
2022/11/15 16:01:14;;;;;;;0.60;0.10;;;13.80;99.90;;;;;;4972333;29;20479;-81
2022/11/15 16:03:42;;;;;;;0.60;0.10;;;13.80;99.90;;;;;;4967095;29;20935;-79
2022/11/15 16:06:36;;;;;;;0.60;0.10;;;13.80;99.90;;;;;;4967996;29;20462;-81
2022/11/15 16:09:04;;;;;;;0.60;0.10;;;13.80;99.90;;;;;;4955095;29;20483;-79
2022/11/15 16:11:48;;;;;;;0.60;0.10;;;;;;;;;;4957023;29;20475;-81
2022/11/15 16:14:16;;;;;;;0.60;0.10;;;13.80;99.90;;;;;;4958532;29;20566;-81
2022/11/15 16:16:45;;;;;;;0.60;0.10;;;;;;;;;;4955515;29;20527;-79
2022/11/15 16:19:13;;;;;;;0.60;0.10;;;13.80;99.90;;;;;;4953718;29;20444;-81
2022/11/15 16:21:41;;;;;;;0.60;0.10;;;13.80;99.90;;;;;;4949252;29;20462;-79
2022/11/15 16:24:09;;;;;;;0.60;0.10;;;13.90;99.90;;;;;;4970885;29;20473;-81
2022/11/15 16:26:38;;;;;;;0.60;0.10;;;13.80;99.90;;;;;;4976957;28;20477;-80
2022/11/15 16:29:08;;;;;;;0.60;0.10;;;13.90;99.90;;;;;;4972827;29;20502;-81
2022/11/15 16:31:37;;;;;;;0.70;0.40;;;13.80;99.90;;;;;;4958125;29;20447;-80
2022/11/15 16:34:07;;;;;;;0.60;0.10;;;13.90;99.90;;;;;;4957741;29;20454;-80
2022/11/15 16:36:36;;;;;;;0.60;0.10;;;13.80;99.90;;;;;;4959218;29;20498;-79
2022/11/15 16:39:04;;;;;;;0.60;0.10;;;13.80;99.90;;;;;;4965532;29;20443;-79
2022/11/15 16:44:28;;;;;;;0.60;0.10;;;10.50;99.90;;;;;;4956873;29;20447;-82
2022/11/15 16:46:56;;;;;;;0.60;0.10;;;13.90;99.90;;;;;;4966925;29;20487;-80
2022/11/15 16:49:25;;;;;;;0.60;0.10;;;13.90;99.90;;;;;;4966976;29;20484;-80
2022/11/15 16:51:53;;;;;;;0.60;0.10;;;13.90;99.90;;;;;;4965635;29;20431;-80
2022/11/15 16:54:21;;;;;;;0.60;0.10;;;13.80;99.90;;;;;;4967069;29;20443;-78
2022/11/15 16:56:49;;;;;;;0.60;0.10;;;12.30;99.90;;;;;;4959538;29;20472;-80
2022/11/15 16:59:19;;;;;;;0.60;0.10;;;13.90;99.90;;;;;;4953352;29;20439;-81
2022/11/15 17:01:51;;;;;;;0.60;0.20;;;13.90;99.90;;;;;;4960113;28;20439;-80
2022/11/15 17:04:21;;;;;;;0.60;0.10;;;13.90;99.90;;;;;;4960069;29;20439;-81
2022/11/15 17:06:51;;;;;;;0.60;0.10;;;13.80;99.90;;;;;;4967222;29;20527;-81
2022/11/15 17:09:23;;;;;;;0.60;0.10;;;13.90;99.90;;;;;;4962295;29;20506;-79
2022/11/15 17:11:51;;;;;;;0.60;0.10;;;13.80;99.90;;;;;;4956272;29;20459;-82
2022/11/15 17:14:20;;;;;;;0.60;0.10;;;13.80;99.90;;;;;;4952596;29;20474;-82
2022/11/15 17:16:48;;;;;;;0.60;0.10;;;13.80;99.90;;;;;;4962392;29;20849;-80
2022/11/15 17:19:20;;;;;;;0.60;0.10;;;13.80;99.90;;;;;;4963679;29;20452;-81
2022/11/15 17:21:50;;;;;;;0.60;0.10;;;13.70;99.90;;;;;;4961584;29;20454;-81
2022/11/15 17:24:19;;;;;;;0.60;0.10;;;13.70;99.90;;;;;;4960877;29;20510;-80
2022/11/15 17:26:47;;;;;;;0.60;0.20;;;13.70;99.90;;;;;;4957590;29;20531;-81
2022/11/15 17:29:15;;;;;;;12.37;2.00;;;13.70;99.90;;;;;;4966428;29;20483;-80
2022/11/15 17:31:43;;;;;;;0.60;0.10;;;13.70;99.90;;;;;;4966737;29;21022;-82
2022/11/15 17:34:12;;;;;;;0.60;0.10;;;;;;;;;;4953964;29;20441;-82